Time;durP1;ratioP1;P1;durP2;ratioP2;P2;SDS_P1;SDS_P2;PMS_P1;PMS_P2;Temp;Humidity;BMP_temperature;BMP_pressure;BME280_temperature;BME280_humidity;BME280_pressure;Samples;Min_cycle;Max_cycle;Signal;HPM_P1;HPM_P2
2022/07/04 00:01:43;;;;;;;3.58;2.20;;;23.70;54.10;;;;;;5060531;28;20314;-70
2022/07/04 00:04:09;;;;;;;2.35;2.15;;;23.70;54.20;;;;;;5059168;28;20040;-69
2022/07/04 00:06:34;;;;;;;5.10;1.95;;;23.60;54.40;;;;;;5061076;28;20027;-70
2022/07/04 00:09:00;;;;;;;2.25;1.55;;;23.60;54.40;;;;;;5060121;28;20033;-69
2022/07/04 00:11:26;;;;;;;9.77;2.40;;;23.60;54.70;;;;;;5060804;28;20029;-69
2022/07/04 00:13:52;;;;;;;2.47;2.10;;;23.50;54.60;;;;;;5061285;28;20024;-71
2022/07/04 00:16:18;;;;;;;2.08;1.90;;;23.50;54.80;;;;;;5061288;28;20013;-70
2022/07/04 00:18:44;;;;;;;2.97;2.03;;;23.50;54.80;;;;;;5060897;28;20070;-70
2022/07/04 00:21:10;;;;;;;3.00;1.88;;;23.40;54.80;;;;;;5062411;28;20009;-70
2022/07/04 00:23:36;;;;;;;3.90;2.17;;;23.40;55.00;;;;;;5060583;28;20459;-70
2022/07/04 00:26:01;;;;;;;2.47;1.83;;;23.40;55.00;;;;;;5061209;28;20028;-70
2022/07/04 00:28:27;;;;;;;3.15;2.08;;;23.30;55.20;;;;;;5060888;28;20573;-70
2022/07/04 00:30:53;;;;;;;2.47;2.00;;;23.40;55.20;;;;;;5059374;28;20513;-71
2022/07/04 00:33:19;;;;;;;5.15;2.20;;;23.30;55.20;;;;;;5061429;28;20025;-70
2022/07/04 00:35:45;;;;;;;3.08;2.10;;;23.30;55.20;;;;;;5061633;28;20031;-70
2022/07/04 00:38:11;;;;;;;3.17;1.90;;;23.30;55.80;;;;;;5057544;28;20035;-70
2022/07/04 00:40:37;;;;;;;9.35;2.38;;;23.30;56.30;;;;;;5060497;28;20024;-70
2022/07/04 00:43:04;;;;;;;2.88;2.20;;;23.30;57.00;;;;;;5059616;28;20017;-71
2022/07/04 00:45:30;;;;;;;2.95;2.10;;;23.30;56.80;;;;;;5057048;28;20044;-69
2022/07/04 00:47:56;;;;;;;2.58;1.90;;;23.30;56.10;;;;;;5060504;28;20109;-69
2022/07/04 00:50:23;;;;;;;2.17;1.98;;;23.30;56.20;;;;;;5058328;28;20033;-70
2022/07/04 00:52:49;;;;;;;2.85;1.98;;;23.30;56.00;;;;;;5059977;28;20418;-69
2022/07/04 00:55:16;;;;;;;3.00;2.10;;;23.30;56.00;;;;;;5057146;28;20053;-69
2022/07/04 00:57:42;;;;;;;2.58;2.25;;;23.20;56.20;;;;;;5059535;28;20024;-70
2022/07/04 01:00:09;;;;;;;2.80;1.80;;;23.20;56.10;;;;;;5054909;28;20017;-71
2022/07/04 01:02:35;;;;;;;3.90;2.03;;;23.20;56.20;;;;;;5061639;28;20074;-69
2022/07/04 01:05:00;;;;;;;2.42;2.17;;;23.20;56.40;;;;;;5060562;28;20029;-70
2022/07/04 01:07:27;;;;;;;7.22;2.40;;;23.20;56.50;;;;;;5061472;28;20020;-71
2022/07/04 01:09:53;;;;;;;2.00;1.90;;;23.20;56.90;;;;;;5065499;28;20367;-71
2022/07/04 01:12:27;;;;;;;2.42;2.03;;;23.10;56.90;;;;;;5062882;28;20021;-71
2022/07/04 01:14:53;;;;;;;;;;;23.10;56.90;;;;;;5063714;28;20437;-69
2022/07/04 01:17:19;;;;;;;2.92;2.20;;;23.20;55.90;;;;;;5063333;28;19904;-70
2022/07/04 01:19:45;;;;;;;4.18;2.10;;;23.20;56.40;;;;;;5063467;28;20108;-71
2022/07/04 01:22:11;;;;;;;3.15;2.10;;;23.10;56.50;;;;;;5063314;28;20021;-70
2022/07/04 01:24:36;;;;;;;5.95;2.33;;;23.10;56.60;;;;;;5063783;28;20016;-69
2022/07/04 01:27:02;;;;;;;2.47;1.83;;;23.00;56.80;;;;;;5062718;28;20478;-69
2022/07/04 01:29:28;;;;;;;4.78;2.08;;;23.00;57.20;;;;;;5063275;28;20025;-70
2022/07/04 01:31:54;;;;;;;5.45;2.22;;;23.00;57.10;;;;;;5060513;28;20386;-69
2022/07/04 01:34:20;;;;;;;5.07;2.33;;;23.00;57.60;;;;;;5064546;28;20494;-70
2022/07/04 01:36:46;;;;;;;4.07;2.47;;;23.00;58.00;;;;;;5058413;28;20029;-69
2022/07/04 01:39:12;;;;;;;2.33;1.55;;;23.00;57.80;;;;;;5064792;28;20415;-69
2022/07/04 01:41:38;;;;;;;3.05;2.25;;;23.00;57.50;;;;;;5063515;28;20032;-70
2022/07/04 01:44:04;;;;;;;2.42;1.80;;;23.00;57.40;;;;;;5065630;28;20153;-71
2022/07/04 01:46:29;;;;;;;2.35;2.05;;;23.00;57.40;;;;;;5063022;28;20061;-70
2022/07/04 01:48:55;;;;;;;2.53;2.33;;;23.00;57.30;;;;;;5063640;28;20117;-69
2022/07/04 01:51:21;;;;;;;2.60;1.98;;;23.00;57.30;;;;;;5064270;28;20148;-71
2022/07/04 01:53:47;;;;;;;2.55;2.10;;;22.90;57.30;;;;;;5063010;28;20056;-71
2022/07/04 01:56:13;;;;;;;2.75;2.15;;;22.90;57.50;;;;;;5062874;28;20053;-70
2022/07/04 01:58:39;;;;;;;5.47;2.05;;;22.90;57.50;;;;;;5061470;28;20029;-70
2022/07/04 02:03:49;;;;;;;;;;;22.90;57.50;;;;;;5062440;28;20036;-70
2022/07/04 02:06:14;;;;;;;2.38;1.83;;;22.90;56.80;;;;;;5059078;28;19908;-71
2022/07/04 02:11:25;;;;;;;4.47;2.42;;;22.90;57.40;;;;;;5062841;28;20143;-70
2022/07/04 02:13:51;;;;;;;3.72;2.33;;;22.80;57.90;;;;;;5062461;28;20108;-70
2022/07/04 02:16:16;;;;;;;3.22;2.67;;;22.80;58.30;;;;;;5065284;28;20492;-69
2022/07/04 02:18:42;;;;;;;4.40;2.20;;;22.80;58.40;;;;;;5072550;28;20099;-70
2022/07/04 02:21:08;;;;;;;3.53;2.38;;;22.80;58.20;;;;;;5074713;28;20397;-69
2022/07/04 02:23:34;;;;;;;4.50;2.20;;;22.80;58.20;;;;;;5074632;28;20033;-69
2022/07/04 02:25:59;;;;;;;3.63;2.03;;;22.80;58.30;;;;;;5066694;28;20477;-69
2022/07/04 02:28:25;;;;;;;3.08;2.25;;;22.80;58.30;;;;;;5038517;28;20449;-69
2022/07/04 02:30:51;;;;;;;5.38;1.70;;;22.70;58.30;;;;;;5032891;28;20061;-68
2022/07/04 02:33:17;;;;;;;3.30;2.50;;;22.80;58.50;;;;;;5034502;28;20041;-69
2022/07/04 02:35:43;;;;;;;4.80;2.30;;;22.80;58.60;;;;;;5034890;28;20041;-70
2022/07/04 02:38:08;;;;;;;2.70;2.25;;;22.90;58.80;;;;;;5039992;28;20092;-69
2022/07/04 02:40:34;;;;;;;6.03;2.60;;;22.90;58.80;;;;;;5033764;28;20033;-69
2022/07/04 02:43:00;;;;;;;2.63;2.40;;;23.00;59.10;;;;;;5032310;28;20026;-70
2022/07/04 02:45:26;;;;;;;3.65;2.40;;;23.00;59.10;;;;;;5034185;28;20368;-69
2022/07/04 02:47:51;;;;;;;5.47;2.70;;;23.10;58.90;;;;;;5032440;28;20041;-69
2022/07/04 02:50:17;;;;;;;2.72;2.40;;;23.10;59.20;;;;;;5033261;28;20036;-71
2022/07/04 02:52:43;;;;;;;5.63;2.60;;;23.10;58.80;;;;;;5032295;28;20464;-69
2022/07/04 02:55:09;;;;;;;3.85;2.40;;;23.10;59.00;;;;;;5031842;28;20025;-70
2022/07/04 02:57:37;;;;;;;3.65;2.10;;;23.20;58.90;;;;;;5032048;28;20032;-69
2022/07/04 03:00:03;;;;;;;4.65;2.88;;;23.20;59.00;;;;;;5033332;28;20064;-71
2022/07/04 03:02:29;;;;;;;3.55;3.13;;;23.20;58.90;;;;;;5033418;28;20029;-69
2022/07/04 03:04:54;;;;;;;2.78;2.42;;;23.30;58.80;;;;;;5047237;28;20024;-70
2022/07/04 03:07:20;;;;;;;4.65;2.30;;;23.30;58.80;;;;;;5048187;28;20029;-69
2022/07/04 03:09:46;;;;;;;4.57;2.97;;;23.30;58.80;;;;;;5033382;28;20021;-70
2022/07/04 03:12:12;;;;;;;3.03;2.25;;;23.30;58.70;;;;;;5035184;28;20133;-69
2022/07/04 03:14:38;;;;;;;3.10;2.45;;;23.40;58.50;;;;;;5049331;28;20024;-70
2022/07/04 03:17:03;;;;;;;4.97;2.10;;;23.40;58.40;;;;;;5039154;28;20024;-70
2022/07/04 03:19:29;;;;;;;2.72;2.17;;;23.40;58.30;;;;;;5032999;28;20463;-69
2022/07/04 03:21:55;;;;;;;6.45;2.85;;;23.50;58.30;;;;;;5032964;28;20142;-70
2022/07/04 03:24:21;;;;;;;3.47;2.75;;;23.50;58.40;;;;;;5032396;28;20036;-69
2022/07/04 03:26:47;;;;;;;3.40;2.33;;;23.50;58.40;;;;;;5032998;28;20048;-70
2022/07/04 03:29:12;;;;;;;3.03;2.40;;;23.50;58.40;;;;;;5032773;28;20026;-71
2022/07/04 03:31:38;;;;;;;4.18;2.15;;;23.50;58.60;;;;;;5043141;28;20769;-70
2022/07/04 03:34:04;;;;;;;4.82;3.03;;;23.50;58.70;;;;;;5038973;28;20036;-69
2022/07/04 03:36:30;;;;;;;5.78;2.60;;;23.50;58.60;;;;;;5043280;28;20022;-69
2022/07/04 03:38:55;;;;;;;7.07;2.90;;;23.50;58.60;;;;;;5032501;28;20037;-69
2022/07/04 03:41:21;;;;;;;4.72;2.80;;;23.50;58.40;;;;;;5038618;28;20025;-70
2022/07/04 03:43:47;;;;;;;3.50;2.55;;;23.50;58.30;;;;;;5033194;28;20128;-69
2022/07/04 03:46:13;;;;;;;7.43;3.10;;;23.50;58.70;;;;;;5035569;28;20089;-70
2022/07/04 03:48:39;;;;;;;5.20;2.60;;;23.50;59.00;;;;;;5053001;28;20043;-70
2022/07/04 03:51:04;;;;;;;3.97;2.40;;;23.40;59.10;;;;;;5051662;28;20044;-69
2022/07/04 03:53:30;;;;;;;3.75;2.28;;;23.30;59.00;;;;;;5051609;28;20044;-69
2022/07/04 03:55:56;;;;;;;4.13;2.88;;;23.20;58.80;;;;;;5052378;28;20077;-71
2022/07/04 03:58:22;;;;;;;3.25;2.67;;;23.20;58.80;;;;;;5052770;28;20077;-69
2022/07/04 04:00:49;;;;;;;3.53;2.95;;;23.20;58.70;;;;;;5052951;28;20099;-69
2022/07/04 04:05:59;;;;;;;;;;;23.30;58.80;;;;;;5053106;28;20036;-69
2022/07/04 04:08:25;;;;;;;5.43;3.13;;;23.30;58.30;;;;;;5052639;28;19905;-70
2022/07/04 04:10:51;;;;;;;6.43;3.08;;;23.40;58.60;;;;;;5051302;28;20025;-70
2022/07/04 04:13:17;;;;;;;4.13;2.60;;;23.40;58.50;;;;;;5051272;28;20111;-69
2022/07/04 04:15:42;;;;;;;4.07;2.78;;;23.40;58.50;;;;;;5051235;28;20120;-70
2022/07/04 04:18:08;;;;;;;2.90;2.60;;;23.40;58.40;;;;;;5052403;28;20059;-69
2022/07/04 04:20:34;;;;;;;2.40;2.20;;;23.40;58.30;;;;;;5052766;28;20021;-69
2022/07/04 04:23:00;;;;;;;7.95;2.97;;;23.50;58.30;;;;;;5052376;28;20025;-68
2022/07/04 04:25:26;;;;;;;6.30;3.05;;;23.50;58.50;;;;;;5052435;28;20021;-70
2022/07/04 04:27:51;;;;;;;4.15;2.67;;;23.50;58.50;;;;;;5052422;28;20028;-68
2022/07/04 04:30:17;;;;;;;7.20;3.03;;;23.50;58.40;;;;;;5051117;28;20029;-70
2022/07/04 04:32:43;;;;;;;8.13;3.08;;;23.50;58.60;;;;;;5052348;28;20060;-71
2022/07/04 04:35:09;;;;;;;3.70;2.60;;;23.50;58.50;;;;;;5052417;28;20028;-68
2022/07/04 04:37:35;;;;;;;3.95;2.83;;;23.50;58.40;;;;;;5051107;28;20021;-69
2022/07/04 04:40:01;;;;;;;10.32;3.00;;;23.60;58.40;;;;;;5047469;28;20519;-70
2022/07/04 04:42:27;;;;;;;3.53;2.70;;;23.60;59.10;;;;;;5034182;28;20033;-71
2022/07/04 04:44:52;;;;;;;6.35;3.03;;;23.60;58.30;;;;;;5036405;28;20471;-70
2022/07/04 04:47:18;;;;;;;5.60;2.92;;;23.60;58.30;;;;;;5036443;28;20033;-70
2022/07/04 04:49:44;;;;;;;6.50;3.58;;;23.70;58.30;;;;;;5036129;28;20487;-70
2022/07/04 04:52:11;;;;;;;7.65;3.13;;;23.70;58.40;;;;;;5036419;28;20033;-69
2022/07/04 04:54:37;;;;;;;5.10;3.28;;;23.70;58.40;;;;;;5035068;28;20479;-70
2022/07/04 04:57:03;;;;;;;4.15;2.92;;;23.70;58.60;;;;;;5036071;28;20091;-71
2022/07/04 04:59:30;;;;;;;6.63;2.92;;;23.70;58.30;;;;;;5036056;28;20025;-71
2022/07/04 05:01:56;;;;;;;5.43;3.13;;;23.70;58.30;;;;;;5034927;28;20022;-71
2022/07/04 05:04:22;;;;;;;3.95;3.50;;;23.80;58.20;;;;;;5036126;28;20048;-71
2022/07/04 05:06:48;;;;;;;5.50;3.10;;;23.80;58.10;;;;;;5051470;28;20475;-70
2022/07/04 05:09:13;;;;;;;5.32;3.00;;;23.90;58.00;;;;;;5035927;28;20025;-72
2022/07/04 05:11:39;;;;;;;3.33;2.83;;;23.90;58.00;;;;;;5035868;28;20029;-70
2022/07/04 05:14:05;;;;;;;6.90;2.90;;;23.90;58.00;;;;;;5036082;28;20061;-70
2022/07/04 05:16:31;;;;;;;8.07;2.97;;;24.00;57.90;;;;;;5035870;28;20033;-70
2022/07/04 05:18:57;;;;;;;3.58;2.92;;;24.00;58.00;;;;;;5035892;28;20022;-72
2022/07/04 05:21:26;;;;;;;7.03;2.63;;;24.10;58.10;;;;;;5035838;28;20100;-70
2022/07/04 05:23:52;;;;;;;4.95;2.75;;;24.10;57.90;;;;;;5034627;28;20025;-71
2022/07/04 05:26:18;;;;;;;7.20;2.95;;;24.20;58.00;;;;;;5035789;28;20097;-71
2022/07/04 05:28:44;;;;;;;5.20;2.90;;;24.20;58.10;;;;;;5035792;28;20033;-70
2022/07/04 05:31:10;;;;;;;5.53;3.03;;;24.20;58.00;;;;;;5035668;28;20036;-71
2022/07/04 05:33:35;;;;;;;3.90;2.95;;;24.30;58.00;;;;;;5034244;28;20055;-70
2022/07/04 05:36:01;;;;;;;4.05;2.60;;;24.30;57.80;;;;;;5035554;28;20399;-71
2022/07/04 05:38:28;;;;;;;3.15;2.70;;;24.30;57.70;;;;;;5035449;28;20097;-71
2022/07/04 05:40:53;;;;;;;10.35;3.28;;;24.40;57.80;;;;;;5034211;28;20536;-71
2022/07/04 05:43:21;;;;;;;5.10;2.58;;;24.40;57.80;;;;;;5034216;28;20117;-71
2022/07/04 05:45:50;;;;;;;8.43;3.22;;;24.40;57.70;;;;;;5034205;28;20026;-70
2022/07/04 05:48:16;;;;;;;8.00;2.70;;;24.40;57.70;;;;;;5035249;28;20033;-69
2022/07/04 05:50:42;;;;;;;7.05;2.83;;;24.50;57.60;;;;;;5042158;28;20031;-71
2022/07/04 05:53:08;;;;;;;5.88;2.80;;;24.50;57.70;;;;;;5065934;28;20206;-71
2022/07/04 05:55:34;;;;;;;3.53;2.45;;;24.50;57.90;;;;;;5061621;28;20150;-69
2022/07/04 05:58:01;;;;;;;7.60;2.80;;;24.50;57.90;;;;;;5064916;28;20028;-71
2022/07/04 06:00:28;;;;;;;2.78;2.35;;;24.60;58.00;;;;;;5062902;28;20017;-72
2022/07/04 06:02:54;;;;;;;3.35;3.05;;;24.60;57.90;;;;;;5063251;28;20026;-71
2022/07/04 06:05:20;;;;;;;8.20;3.30;;;24.60;57.80;;;;;;5064711;28;20016;-71
2022/07/04 06:07:48;;;;;;;5.15;2.85;;;24.70;58.10;;;;;;5062110;28;20028;-71
2022/07/04 06:10:14;;;;;;;7.35;2.92;;;24.70;58.60;;;;;;5064060;28;20471;-70
2022/07/04 06:12:40;;;;;;;3.75;2.72;;;24.70;58.20;;;;;;5062612;28;20032;-72
2022/07/04 06:15:09;;;;;;;5.43;2.58;;;24.70;57.80;;;;;;5063226;28;20077;-70
2022/07/04 06:17:36;;;;;;;8.25;2.80;;;24.70;57.70;;;;;;5064435;28;20048;-70
2022/07/04 06:20:03;;;;;;;6.60;2.65;;;24.70;58.00;;;;;;5053560;28;20426;-71
2022/07/04 06:22:37;;;;;;;4.47;2.60;;;24.80;58.40;;;;;;5055503;28;20029;-71
2022/07/04 06:25:04;;;;;;;7.43;3.20;;;24.70;58.30;;;;;;5054187;28;20094;-71
2022/07/04 06:27:29;;;;;;;6.95;3.00;;;24.80;58.50;;;;;;5054151;28;20108;-70
2022/07/04 06:29:55;;;;;;;5.75;3.28;;;24.80;58.80;;;;;;5054463;28;20087;-70
2022/07/04 06:32:21;;;;;;;6.07;2.70;;;24.80;59.10;;;;;;5054402;28;20025;-70
2022/07/04 06:37:31;;;;;;;10.00;3.13;;;24.80;58.90;;;;;;5048262;28;20067;-71
2022/07/04 06:39:57;;;;;;;5.82;2.90;;;24.90;59.40;;;;;;5034467;28;20022;-70
2022/07/04 06:42:22;;;;;;;4.07;2.63;;;24.90;59.70;;;;;;5034407;28;20106;-70
2022/07/04 06:44:48;;;;;;;5.45;2.80;;;25.00;59.80;;;;;;5034420;28;20091;-71
2022/07/04 06:47:14;;;;;;;5.38;2.65;;;25.00;59.80;;;;;;5034313;28;20506;-71
2022/07/04 06:49:40;;;;;;;4.15;2.67;;;25.10;59.60;;;;;;5034295;28;20391;-70
2022/07/04 06:52:06;;;;;;;3.13;2.40;;;25.20;59.60;;;;;;5034292;28;20017;-69
2022/07/04 06:54:31;;;;;;;3.25;2.60;;;25.30;59.50;;;;;;5034128;28;20037;-71
2022/07/04 06:56:57;;;;;;;2.90;2.60;;;25.40;59.40;;;;;;5033933;28;20115;-71
2022/07/04 06:59:23;;;;;;;4.78;2.20;;;25.50;59.00;;;;;;5032736;28;20593;-72
2022/07/04 07:01:49;;;;;;;2.72;2.35;;;25.60;58.20;;;;;;5034072;28;20444;-72
2022/07/04 07:04:14;;;;;;;5.70;3.22;;;25.60;57.30;;;;;;5033969;28;20029;-72
2022/07/04 07:06:40;;;;;;;5.65;2.78;;;25.80;57.50;;;;;;5032489;28;20033;-71
2022/07/04 07:09:06;;;;;;;5.25;2.92;;;25.90;57.40;;;;;;5033901;28;20040;-70
2022/07/04 07:11:32;;;;;;;2.65;2.40;;;26.00;56.90;;;;;;5033803;28;20040;-70
2022/07/04 07:13:58;;;;;;;3.25;2.20;;;26.10;56.90;;;;;;5033753;28;20037;-68
2022/07/04 07:16:25;;;;;;;2.33;2.13;;;26.20;57.00;;;;;;5033843;28;20041;-69
2022/07/04 07:18:51;;;;;;;4.68;2.20;;;26.30;56.70;;;;;;5034194;28;20018;-73
2022/07/04 07:21:17;;;;;;;8.55;2.95;;;26.30;56.50;;;;;;5033147;28;20492;-68
2022/07/04 07:23:43;;;;;;;4.07;2.70;;;26.30;56.20;;;;;;5034452;28;20029;-68
2022/07/04 07:26:11;;;;;;;4.25;2.65;;;26.30;55.90;;;;;;5034776;28;20093;-68
2022/07/04 07:28:37;;;;;;;5.40;2.63;;;26.30;55.80;;;;;;5034470;28;20076;-68
2022/07/04 07:31:03;;;;;;;2.97;2.60;;;26.30;55.90;;;;;;5034463;28;20033;-70
2022/07/04 07:33:29;;;;;;;8.20;3.22;;;26.30;55.80;;;;;;5034478;28;20048;-68
2022/07/04 07:35:55;;;;;;;4.57;2.40;;;26.40;55.90;;;;;;5034302;28;20075;-70
2022/07/04 07:38:21;;;;;;;4.30;2.55;;;26.40;55.80;;;;;;5033629;28;20090;-73
2022/07/04 07:40:46;;;;;;;2.75;2.40;;;26.40;55.90;;;;;;5033395;28;20383;-71
2022/07/04 07:43:12;;;;;;;4.35;2.30;;;26.50;55.00;;;;;;5033348;28;20021;-70
2022/07/04 07:45:38;;;;;;;3.10;2.13;;;26.50;54.30;;;;;;5033429;28;20428;-70
2022/07/04 07:48:04;;;;;;;4.75;3.20;;;26.50;54.60;;;;;;5033194;28;20041;-70
2022/07/04 07:50:30;;;;;;;4.00;2.50;;;26.50;55.20;;;;;;5033366;28;20033;-70
2022/07/04 07:52:56;;;;;;;3.85;2.15;;;26.50;55.20;;;;;;5033264;28;20040;-71
2022/07/04 07:55:22;;;;;;;4.43;2.72;;;26.60;54.90;;;;;;5032989;28;20052;-71
2022/07/04 07:57:48;;;;;;;4.93;3.03;;;26.60;54.80;;;;;;5031874;28;20057;-70
2022/07/04 08:00:14;;;;;;;5.57;3.17;;;26.70;55.00;;;;;;5031877;28;20498;-72
2022/07/04 08:05:24;;;;;;;3.00;2.40;;;26.80;54.40;;;;;;5033086;28;20564;-70
2022/07/04 08:07:50;;;;;;;3.30;2.13;;;26.90;54.00;;;;;;5032752;28;20033;-71
2022/07/04 08:10:16;;;;;;;3.10;1.88;;;26.90;52.80;;;;;;5032893;28;20100;-68
2022/07/04 08:12:41;;;;;;;2.85;1.70;;;27.00;52.50;;;;;;5032694;28;20025;-68
2022/07/04 08:15:08;;;;;;;2.40;1.70;;;27.10;52.00;;;;;;5031615;28;20442;-69
2022/07/04 08:17:35;;;;;;;1.88;1.55;;;27.20;52.10;;;;;;5032114;28;20017;-68
2022/07/04 08:20:05;;;;;;;1.98;1.70;;;27.30;52.50;;;;;;5032831;28;20022;-68
2022/07/04 08:22:32;;;;;;;3.13;1.90;;;27.40;52.40;;;;;;5032776;28;20026;-70
2022/07/04 08:24:57;;;;;;;2.15;1.70;;;27.60;52.40;;;;;;5032769;28;20026;-69
2022/07/04 08:27:23;;;;;;;2.70;1.90;;;27.60;52.00;;;;;;5032628;28;20075;-70
2022/07/04 08:29:49;;;;;;;3.05;1.73;;;27.80;52.00;;;;;;5032719;28;20475;-70
2022/07/04 08:32:15;;;;;;;2.72;1.88;;;28.00;51.30;;;;;;5032639;28;20022;-69
2022/07/04 08:34:42;;;;;;;2.40;1.70;;;28.10;50.70;;;;;;5032544;28;20025;-69
2022/07/04 08:37:08;;;;;;;2.03;1.75;;;28.10;50.50;;;;;;5032550;28;20029;-70
2022/07/04 08:39:34;;;;;;;1.77;1.65;;;28.20;50.30;;;;;;5032557;28;20437;-68
2022/07/04 08:42:05;;;;;;;2.35;1.70;;;28.20;50.40;;;;;;5032669;28;20092;-68
2022/07/04 08:44:38;;;;;;;1.77;1.27;;;28.30;49.20;;;;;;5032665;28;20018;-68
2022/07/04 08:47:08;;;;;;;7.95;4.55;;;28.30;47.80;;;;;;5032651;28;20387;-70
2022/07/04 08:49:34;;;;;;;2.70;1.63;;;28.40;47.70;;;;;;5031246;28;20423;-70
2022/07/04 08:52:12;;;;;;;3.08;1.58;;;28.40;48.40;;;;;;5032379;28;20527;-69
2022/07/04 09:00:07;;;;;;;2.90;1.90;;;28.50;46.30;;;;;;5032786;28;20060;-70
2022/07/04 09:02:34;;;;;;;2.42;1.63;;;28.50;47.20;;;;;;5032316;28;20418;-70
2022/07/04 09:05:00;;;;;;;1.85;1.60;;;28.60;46.90;;;;;;5032264;28;20471;-70
2022/07/04 09:07:29;;;;;;;2.53;1.60;;;28.70;47.60;;;;;;5030996;28;20034;-70
2022/07/04 09:09:57;;;;;;;2.58;1.65;;;28.70;46.80;;;;;;5032232;28;20617;-71
2022/07/04 09:12:23;;;;;;;8.15;1.85;;;28.80;46.50;;;;;;5030837;28;20036;-70
2022/07/04 09:14:51;;;;;;;4.28;2.10;;;28.90;46.40;;;;;;5032569;28;20022;-69
2022/07/04 09:17:17;;;;;;;9.75;2.38;;;28.90;46.70;;;;;;5030891;28;20394;-69
2022/07/04 09:19:43;;;;;;;2.13;1.92;;;28.90;46.90;;;;;;5031970;28;20116;-71
2022/07/04 09:22:11;;;;;;;2.00;1.70;;;29.00;47.00;;;;;;5032051;28;20018;-70
2022/07/04 09:24:48;;;;;;;5.95;1.70;;;29.00;47.40;;;;;;5031961;28;20018;-71
2022/07/04 09:27:35;;;;;;;1.75;1.40;;;29.10;46.80;;;;;;5030699;28;20033;-69
2022/07/04 09:30:03;;;;;;;2.13;1.70;;;29.10;46.80;;;;;;5034428;28;20025;-69
2022/07/04 09:32:37;;;;;;;3.03;1.60;;;29.10;46.50;;;;;;5035453;28;20025;-70
2022/07/04 09:35:05;;;;;;;1.90;1.67;;;29.10;46.50;;;;;;5035624;28;20475;-70
2022/07/04 09:37:38;;;;;;;2.40;1.60;;;29.20;46.30;;;;;;5035742;28;20115;-69
2022/07/04 09:40:06;;;;;;;2.15;1.45;;;29.20;45.80;;;;;;5035702;28;20170;-71
2022/07/04 09:42:42;;;;;;;1.50;1.40;;;29.20;45.40;;;;;;5034331;28;20079;-71
2022/07/04 09:45:11;;;;;;;2.22;1.42;;;29.20;45.70;;;;;;5035614;28;20033;-71
2022/07/04 09:47:38;;;;;;;2.00;1.50;;;29.30;45.60;;;;;;5035681;28;20030;-69
2022/07/04 09:50:09;;;;;;;1.75;1.25;;;29.30;45.10;;;;;;5035668;28;20104;-72
2022/07/04 09:53:00;;;;;;;1.88;1.15;;;29.30;44.90;;;;;;5035595;28;20022;-69
2022/07/04 09:55:39;;;;;;;2.20;1.50;;;29.30;45.40;;;;;;5035388;28;20514;-69
2022/07/04 09:58:09;;;;;;;1.40;1.30;;;29.40;45.10;;;;;;5035512;28;20033;-71
2022/07/04 10:00:39;;;;;;;1.63;1.30;;;29.30;43.90;;;;;;5035541;28;20075;-70
2022/07/04 10:03:28;;;;;;;4.95;1.40;;;29.30;43.70;;;;;;5035279;28;20393;-70
2022/07/04 10:06:11;;;;;;;1.70;1.50;;;29.30;44.00;;;;;;5034134;28;20026;-69
2022/07/04 10:08:41;;;;;;;1.63;1.50;;;29.30;44.30;;;;;;5035570;28;20029;-69
2022/07/04 10:11:07;;;;;;;2.47;1.95;;;29.40;44.20;;;;;;5035264;28;20447;-69
2022/07/04 10:13:33;;;;;;;2.25;1.38;;;29.50;43.30;;;;;;5035228;28;20095;-71
2022/07/04 10:15:59;;;;;;;1.90;1.55;;;29.70;43.00;;;;;;5033811;28;20479;-69
2022/07/04 10:18:26;;;;;;;4.93;1.40;;;29.90;43.50;;;;;;5035065;28;20462;-71
2022/07/04 10:20:54;;;;;;;4.35;1.73;;;30.00;44.30;;;;;;5035139;28;20356;-71
2022/07/04 10:23:21;;;;;;;3.10;1.65;;;30.30;43.40;;;;;;5035077;28;20018;-69
2022/07/04 10:25:49;;;;;;;5.97;1.92;;;30.60;43.60;;;;;;5035007;28;20490;-71
2022/07/04 10:28:16;;;;;;;3.35;1.95;;;30.90;42.60;;;;;;5034858;28;20482;-71
2022/07/04 10:30:43;;;;;;;2.42;1.73;;;31.20;42.00;;;;;;5035232;28;20113;-70
2022/07/04 10:33:10;;;;;;;2.63;1.90;;;31.50;42.00;;;;;;5034506;28;20025;-69
2022/07/04 10:35:57;;;;;;;1.88;1.50;;;31.80;38.60;;;;;;5034709;28;20026;-70
2022/07/04 10:38:25;;;;;;;1.90;1.60;;;32.00;39.80;;;;;;5034686;28;20025;-70
2022/07/04 10:41:07;;;;;;;3.90;1.80;;;32.20;40.20;;;;;;5033912;28;20033;-71
2022/07/04 10:43:37;;;;;;;2.05;1.60;;;32.40;39.50;;;;;;5034599;28;20026;-70
2022/07/04 10:46:05;;;;;;;1.67;1.50;;;32.70;39.90;;;;;;5034590;28;20121;-71
2022/07/04 10:48:31;;;;;;;2.03;1.48;;;32.90;39.60;;;;;;5033261;28;20021;-72
2022/07/04 10:51:05;;;;;;;3.25;1.70;;;33.10;38.50;;;;;;5033127;28;20037;-71
2022/07/04 10:53:33;;;;;;;1.60;1.35;;;33.30;37.90;;;;;;5034335;28;20041;-70
2022/07/04 10:56:17;;;;;;;8.30;2.25;;;33.40;36.90;;;;;;5034138;28;20106;-69
2022/07/04 10:58:43;;;;;;;5.43;1.52;;;33.50;37.20;;;;;;5033909;28;20091;-70
2022/07/04 11:01:17;;;;;;;2.90;1.60;;;33.60;36.80;;;;;;5034283;28;20049;-71
2022/07/04 11:03:53;;;;;;;2.28;1.60;;;33.80;35.40;;;;;;5032883;28;20380;-68
2022/07/04 11:06:37;;;;;;;2.83;1.42;;;33.90;35.70;;;;;;5034233;28;20492;-67
2022/07/04 11:09:13;;;;;;;3.45;1.50;;;34.00;35.30;;;;;;5034042;28;20028;-68
2022/07/04 11:11:59;;;;;;;3.53;2.00;;;34.00;35.00;;;;;;5034006;28;20045;-67
2022/07/04 11:14:39;;;;;;;3.95;2.13;;;34.00;35.50;;;;;;5033927;28;20056;-69
2022/07/04 11:17:07;;;;;;;3.05;1.70;;;34.10;35.60;;;;;;5033886;28;20025;-70
2022/07/04 11:19:33;;;;;;;1.80;1.42;;;34.10;35.80;;;;;;5033898;28;20026;-71
2022/07/04 11:21:59;;;;;;;1.40;1.30;;;34.10;36.10;;;;;;5033842;28;20026;-69
2022/07/04 11:24:26;;;;;;;3.17;1.60;;;34.10;35.80;;;;;;5033842;28;20368;-68
2022/07/04 11:26:52;;;;;;;3.45;1.80;;;34.10;35.70;;;;;;5033822;28;20028;-69
2022/07/04 11:29:18;;;;;;;4.22;1.60;;;34.00;34.30;;;;;;5033743;28;20123;-69
2022/07/04 11:31:49;;;;;;;3.00;1.70;;;33.90;35.20;;;;;;5033517;28;20248;-69
2022/07/04 11:34:15;;;;;;;1.70;1.60;;;33.90;35.40;;;;;;5033621;28;20026;-68
2022/07/04 11:36:44;;;;;;;1.92;1.48;;;33.80;34.40;;;;;;5033643;28;20387;-69
2022/07/04 11:39:12;;;;;;;1.58;1.30;;;33.70;33.90;;;;;;5033516;28;20475;-68
2022/07/04 11:47:35;;;;;;;2.03;1.45;;;33.60;35.00;;;;;;5033285;28;20036;-70
2022/07/04 11:50:02;;;;;;;8.63;1.30;;;33.70;35.50;;;;;;5033358;28;20028;-70
2022/07/04 11:52:30;;;;;;;5.88;1.50;;;33.80;34.40;;;;;;5032410;28;20033;-69
2022/07/04 11:54:57;;;;;;;2.17;1.50;;;33.80;34.80;;;;;;5033075;28;20524;-68
2022/07/04 11:57:27;;;;;;;2.67;1.63;;;33.90;34.70;;;;;;5033284;28;20437;-69
2022/07/04 11:59:55;;;;;;;4.60;1.88;;;34.00;35.00;;;;;;5033754;28;20413;-68
2022/07/04 12:02:21;;;;;;;3.45;1.42;;;34.10;34.40;;;;;;5033073;28;20032;-68
2022/07/04 12:04:47;;;;;;;3.45;1.83;;;34.20;34.70;;;;;;5033023;28;20025;-68
2022/07/04 12:07:15;;;;;;;3.33;1.52;;;34.20;34.50;;;;;;5033006;28;20022;-70
2022/07/04 12:09:42;;;;;;;2.08;1.48;;;34.30;34.70;;;;;;5033114;28;20029;-69
2022/07/04 12:12:10;;;;;;;3.00;1.65;;;34.30;34.80;;;;;;5031793;28;20399;-69
2022/07/04 12:14:37;;;;;;;2.08;1.60;;;34.40;34.90;;;;;;5033024;28;20026;-69
2022/07/04 12:17:17;;;;;;;2.03;1.70;;;34.50;34.80;;;;;;5031730;28;20025;-70
2022/07/04 12:19:51;;;;;;;1.73;1.30;;;34.40;34.70;;;;;;5032858;28;20108;-68
2022/07/04 12:22:35;;;;;;;1.60;1.50;;;34.40;35.00;;;;;;5032961;28;20101;-69
2022/07/04 12:25:02;;;;;;;2.10;1.80;;;34.40;35.10;;;;;;5032851;28;20451;-69
2022/07/04 12:27:29;;;;;;;1.90;1.50;;;34.40;34.40;;;;;;5031595;28;20058;-71
2022/07/04 12:29:56;;;;;;;3.45;1.80;;;34.30;34.70;;;;;;5032819;28;20163;-72
2022/07/04 12:32:22;;;;;;;1.60;1.50;;;34.20;35.10;;;;;;5031620;28;20021;-70
2022/07/04 12:34:48;;;;;;;7.15;1.92;;;34.00;35.40;;;;;;5032796;28;20128;-69
2022/07/04 12:37:16;;;;;;;4.18;1.80;;;34.00;35.90;;;;;;5031802;28;20030;-69
2022/07/04 12:39:43;;;;;;;1.70;1.60;;;33.80;36.40;;;;;;5032753;28;20026;-71
2022/07/04 12:42:19;;;;;;;2.53;1.50;;;33.70;36.70;;;;;;5032810;28;20156;-71
2022/07/04 12:44:49;;;;;;;1.90;1.50;;;33.60;37.10;;;;;;5032734;28;20474;-70
2022/07/04 12:47:15;;;;;;;1.65;1.55;;;33.50;37.40;;;;;;5032690;28;20030;-69
2022/07/04 12:49:46;;;;;;;2.03;1.55;;;33.30;37.40;;;;;;5032732;28;20029;-69
2022/07/04 12:52:15;;;;;;;2.33;2.00;;;33.20;37.60;;;;;;5032689;28;20100;-71
2022/07/04 12:54:44;;;;;;;1.80;1.70;;;33.00;37.80;;;;;;5032710;28;20100;-70
2022/07/04 12:57:16;;;;;;;2.53;1.52;;;32.80;38.40;;;;;;5032436;28;20077;-70
2022/07/04 12:59:42;;;;;;;1.98;1.75;;;32.60;39.20;;;;;;5032493;28;20030;-70
2022/07/04 13:02:09;;;;;;;2.33;2.00;;;32.40;39.20;;;;;;5032571;28;20018;-70
2022/07/04 13:04:36;;;;;;;2.55;1.63;;;32.20;39.70;;;;;;5035938;28;20025;-72
2022/07/04 13:07:18;;;;;;;2.28;1.85;;;32.10;39.90;;;;;;5035174;28;20032;-70
2022/07/04 13:09:45;;;;;;;1.73;1.63;;;31.90;39.80;;;;;;5036727;28;20018;-71
2022/07/04 13:12:24;;;;;;;5.82;1.75;;;31.90;40.30;;;;;;5036366;28;20032;-71
2022/07/04 13:14:58;;;;;;;3.83;2.13;;;31.80;40.50;;;;;;5036294;28;20022;-71